Time;durP1;ratioP1;P1;durP2;ratioP2;P2;SDS_P1;SDS_P2;PMS_P1;PMS_P2;Temp;Humidity;BMP_temperature;BMP_pressure;BME280_temperature;BME280_humidity;BME280_pressure;Samples;Min_cycle;Max_cycle;Signal;HPM_P1;HPM_P2
2023/06/30 00:01:04;;;;;;;5.43;4.60;;;24.90;81.30;;;;;;4940642;29;20431;-86
2023/06/30 00:03:35;;;;;;;5.17;4.70;;;24.90;81.40;;;;;;4957378;28;20821;-85
2023/06/30 00:06:03;;;;;;;4.90;4.50;;;24.90;81.20;;;;;;4941557;29;20447;-85
2023/06/30 00:08:32;;;;;;;5.23;4.93;;;24.80;81.20;;;;;;4940327;29;20459;-84
2023/06/30 00:11:01;;;;;;;5.23;4.93;;;24.90;81.20;;;;;;4936225;29;20430;-85
2023/06/30 00:13:29;;;;;;;5.57;5.10;;;24.90;81.10;;;;;;4956292;29;20521;-84
2023/06/30 00:15:56;;;;;;;5.30;4.90;;;24.90;81.40;;;;;;4951136;29;20282;-84
2023/06/30 00:18:21;;;;;;;4.90;4.60;;;24.90;81.60;;;;;;4956452;29;20510;-84
2023/06/30 00:20:47;;;;;;;4.90;4.60;;;24.80;81.30;;;;;;4934015;29;20518;-85
2023/06/30 00:23:14;;;;;;;5.93;5.43;;;24.90;81.00;;;;;;4956407;29;20191;-86
2023/06/30 00:25:42;;;;;;;5.20;4.90;;;24.90;80.90;;;;;;4948802;29;20232;-86
2023/06/30 00:28:07;;;;;;;5.00;4.70;;;24.80;81.10;;;;;;4924532;29;20453;-86
2023/06/30 00:30:36;;;;;;;5.23;4.93;;;24.70;80.90;;;;;;4955912;29;20435;-86
2023/06/30 00:33:02;;;;;;;5.50;5.10;;;24.70;81.00;;;;;;4955930;29;20521;-86
2023/06/30 00:35:30;;;;;;;5.20;4.90;;;24.90;80.90;;;;;;4972171;28;20250;-86
2023/06/30 00:37:56;;;;;;;5.77;5.27;;;24.80;80.90;;;;;;4934732;29;20465;-85
2023/06/30 00:40:24;;;;;;;5.80;5.30;;;24.70;80.80;;;;;;4956032;29;20445;-85
2023/06/30 00:42:52;;;;;;;4.97;4.67;;;24.70;80.80;;;;;;4956069;29;20482;-86
2023/06/30 00:45:18;;;;;;;5.17;4.87;;;24.80;80.80;;;;;;4969939;28;20473;-86
2023/06/30 00:47:44;;;;;;;4.70;4.40;;;24.70;80.60;;;;;;4933302;29;20431;-87
2023/06/30 00:50:11;;;;;;;5.77;5.27;;;24.80;80.80;;;;;;4956846;28;20593;-86
2023/06/30 00:52:42;;;;;;;4.80;4.40;;;24.70;80.70;;;;;;4947995;29;20661;-86
2023/06/30 00:55:08;;;;;;;5.20;4.80;;;24.80;80.80;;;;;;4955741;28;20498;-86
2023/06/30 00:57:38;;;;;;;5.30;4.90;;;24.70;80.50;;;;;;4940754;29;20463;-88
2023/06/30 01:00:10;;;;;;;4.87;4.57;;;24.60;80.50;;;;;;4940326;29;20455;-87
2023/06/30 01:02:52;;;;;;;4.60;4.30;;;24.60;80.40;;;;;;4939233;29;20446;-88
2023/06/30 01:05:25;;;;;;;5.00;4.60;;;24.60;80.60;;;;;;4923483;29;20462;-88
2023/06/30 01:08:00;;;;;;;5.10;4.80;;;24.60;80.80;;;;;;4939177;29;20426;-88
2023/06/30 01:10:30;;;;;;;5.13;4.70;;;24.70;80.80;;;;;;4908041;29;20435;-87
2023/06/30 01:12:57;;;;;;;5.27;4.80;;;24.60;80.80;;;;;;4923260;29;20470;-86
2023/06/30 01:15:24;;;;;;;5.00;4.60;;;24.60;80.90;;;;;;4939447;29;20438;-87
2023/06/30 01:17:56;;;;;;;5.47;5.07;;;24.50;80.70;;;;;;4923323;29;20766;-87
2023/06/30 01:20:30;;;;;;;4.77;4.47;;;24.60;81.10;;;;;;4923631;28;20442;-87
2023/06/30 01:23:19;;;;;;;5.50;5.10;;;24.60;80.80;;;;;;4910480;29;20454;-88
2023/06/30 01:25:48;;;;;;;5.00;4.60;;;24.70;81.30;;;;;;4927374;29;20455;-88
2023/06/30 01:28:17;;;;;;;5.50;5.10;;;24.60;81.20;;;;;;4928116;29;20455;-87
2023/06/30 01:30:43;;;;;;;5.50;5.07;;;24.50;81.00;;;;;;4943407;29;20451;-87
2023/06/30 01:33:11;;;;;;;4.70;4.40;;;24.60;81.00;;;;;;4914803;29;20481;-87
2023/06/30 01:35:39;;;;;;;5.80;5.40;;;24.50;80.80;;;;;;4952223;29;20419;-87
2023/06/30 01:38:05;;;;;;;4.70;4.40;;;24.50;80.70;;;;;;4943509;29;20458;-86
2023/06/30 01:40:33;;;;;;;4.93;4.53;;;24.50;80.60;;;;;;4959283;29;20214;-87
2023/06/30 01:42:59;;;;;;;5.37;4.97;;;24.50;80.70;;;;;;4923396;29;20789;-86
2023/06/30 01:45:28;;;;;;;4.80;4.40;;;24.40;80.50;;;;;;4959452;29;20222;-87
2023/06/30 01:47:57;;;;;;;5.23;4.93;;;24.40;80.50;;;;;;4938809;29;20426;-87
2023/06/30 01:50:24;;;;;;;4.70;4.40;;;24.50;80.40;;;;;;4975708;28;20477;-87
2023/06/30 01:52:50;;;;;;;5.00;4.70;;;24.40;80.30;;;;;;4937263;29;20473;-87
2023/06/30 01:55:17;;;;;;;4.93;4.53;;;24.50;80.70;;;;;;4943496;29;20442;-87
2023/06/30 01:57:43;;;;;;;5.17;4.67;;;24.50;80.60;;;;;;4952628;29;20538;-87
2023/06/30 02:00:09;;;;;;;5.53;5.10;;;24.40;80.40;;;;;;4975390;28;20489;-87
2023/06/30 02:02:46;;;;;;;4.70;4.30;;;24.40;80.30;;;;;;4959253;29;20433;-86
2023/06/30 02:05:12;;;;;;;4.50;4.20;;;24.40;80.30;;;;;;4959503;29;20489;-87
2023/06/30 02:07:38;;;;;;;4.43;4.03;;;24.40;80.30;;;;;;4935829;29;20418;-87
2023/06/30 02:10:07;;;;;;;5.10;4.70;;;24.40;80.40;;;;;;4942946;29;20543;-87
2023/06/30 02:12:34;;;;;;;5.03;4.43;;;24.30;80.20;;;;;;4958670;29;20470;-87
2023/06/30 02:15:02;;;;;;;4.67;4.37;;;24.40;80.30;;;;;;4954838;29;20791;-87
2023/06/30 02:17:31;;;;;;;4.60;4.30;;;24.40;80.40;;;;;;4958926;29;20877;-87
2023/06/30 02:19:58;;;;;;;4.93;4.53;;;24.30;80.20;;;;;;4953720;29;20446;-87
2023/06/30 02:22:23;;;;;;;4.80;4.50;;;24.30;80.30;;;;;;4959198;29;20474;-86
2023/06/30 02:24:55;;;;;;;5.57;5.07;;;24.30;80.20;;;;;;4952677;29;20474;-87
2023/06/30 02:27:23;;;;;;;4.67;4.30;;;24.40;80.40;;;;;;4974497;28;20519;-87
2023/06/30 02:29:50;;;;;;;5.20;4.70;;;24.30;80.20;;;;;;4952961;29;20529;-87
2023/06/30 02:32:19;;;;;;;4.73;4.33;;;24.20;80.10;;;;;;4974238;28;20871;-87
2023/06/30 02:34:45;;;;;;;4.77;4.33;;;24.20;80.20;;;;;;4920341;29;20423;-87
2023/06/30 02:37:13;;;;;;;5.53;4.80;;;24.30;80.40;;;;;;4942732;29;20439;-86
2023/06/30 02:39:39;;;;;;;4.67;4.37;;;24.30;80.40;;;;;;4951530;29;20489;-86
2023/06/30 02:42:05;;;;;;;4.80;4.50;;;24.20;80.40;;;;;;4942686;29;20757;-86
2023/06/30 02:45:29;;;;;;;4.57;4.23;;;24.20;80.20;;;;;;4926550;29;20490;-87
2023/06/30 02:47:55;;;;;;;5.20;4.60;;;24.20;80.10;;;;;;4952816;29;20423;-87
2023/06/30 02:50:29;;;;;;;4.83;4.20;;;24.30;80.30;;;;;;4958404;29;20451;-87
2023/06/30 02:52:56;;;;;;;4.17;3.80;;;24.20;80.20;;;;;;4953010;29;20455;-87
2023/06/30 02:55:22;;;;;;;4.50;4.20;;;24.10;80.10;;;;;;4958362;29;20534;-87
2023/06/30 02:57:48;;;;;;;4.37;4.07;;;24.10;80.20;;;;;;4952245;29;20427;-86
2023/06/30 03:00:14;;;;;;;4.90;4.50;;;24.10;80.10;;;;;;4926338;29;20537;-87
2023/06/30 03:02:40;;;;;;;4.27;3.97;;;24.20;80.30;;;;;;4934777;29;20407;-86
2023/06/30 03:05:08;;;;;;;4.10;3.90;;;24.20;80.30;;;;;;4957974;29;20518;-86
2023/06/30 03:07:37;;;;;;;5.00;4.60;;;24.10;80.40;;;;;;4926397;29;20451;-86
2023/06/30 03:10:04;;;;;;;4.23;4.03;;;24.10;80.40;;;;;;4953699;29;20427;-87
2023/06/30 03:12:33;;;;;;;4.70;4.30;;;24.10;80.30;;;;;;4941928;29;20489;-87
2023/06/30 03:14:59;;;;;;;6.57;4.00;;;24.20;80.40;;;;;;4969145;28;20474;-87
2023/06/30 03:17:25;;;;;;;4.83;4.33;;;24.10;80.40;;;;;;4957532;29;20450;-85
2023/06/30 03:19:51;;;;;;;4.73;4.33;;;24.00;80.40;;;;;;4936507;29;20179;-86
2023/06/30 03:22:19;;;;;;;4.60;4.07;;;24.10;80.70;;;;;;4957474;29;20787;-87
2023/06/30 03:24:45;;;;;;;6.70;4.53;;;24.10;80.60;;;;;;4935200;29;20554;-86
2023/06/30 03:27:14;;;;;;;4.50;4.10;;;24.00;80.40;;;;;;4926509;29;20430;-86
2023/06/30 03:29:40;;;;;;;4.07;3.67;;;24.00;80.10;;;;;;4966227;28;20459;-87
2023/06/30 03:32:09;;;;;;;4.83;4.53;;;24.10;80.20;;;;;;4925812;29;20490;-87
2023/06/30 03:34:35;;;;;;;4.23;3.77;;;24.00;80.00;;;;;;4957378;29;20293;-87
2023/06/30 03:37:01;;;;;;;4.80;4.50;;;24.10;80.10;;;;;;4957331;29;20880;-87
2023/06/30 03:39:28;;;;;;;4.50;4.10;;;24.10;80.00;;;;;;4957278;29;20214;-87
2023/06/30 03:41:54;;;;;;;4.30;4.00;;;23.90;79.80;;;;;;4935960;29;20826;-86
2023/06/30 03:44:21;;;;;;;5.17;4.77;;;24.00;79.80;;;;;;4956530;28;20212;-85
2023/06/30 03:46:50;;;;;;;5.30;4.90;;;23.90;79.60;;;;;;4951482;28;20457;-86
2023/06/30 03:49:19;;;;;;;5.20;4.83;;;24.00;79.80;;;;;;4961283;28;20438;-87
2023/06/30 03:51:45;;;;;;;5.20;4.23;;;24.00;79.80;;;;;;4934830;29;20482;-87
2023/06/30 03:54:14;;;;;;;4.60;4.30;;;24.00;79.80;;;;;;4943550;28;20415;-87
2023/06/30 03:56:43;;;;;;;5.07;4.60;;;24.00;79.90;;;;;;4972318;28;20421;-86
2023/06/30 03:59:13;;;;;;;4.50;4.10;;;23.80;79.60;;;;;;4964550;28;20450;-86
2023/06/30 04:01:40;;;;;;;4.23;3.73;;;23.80;79.60;;;;;;4971765;28;20512;-87
2023/06/30 04:04:06;;;;;;;4.87;4.27;;;23.80;79.40;;;;;;4963715;28;20515;-87
2023/06/30 04:06:33;;;;;;;4.53;4.13;;;23.80;79.40;;;;;;4979762;28;20429;-86
2023/06/30 04:08:59;;;;;;;4.40;4.10;;;23.80;79.40;;;;;;4958901;28;20441;-87
2023/06/30 04:11:26;;;;;;;4.43;4.03;;;23.90;79.60;;;;;;4995898;28;20461;-88
2023/06/30 04:13:54;;;;;;;5.57;4.30;;;23.90;79.40;;;;;;4974061;28;20525;-87
2023/06/30 04:16:20;;;;;;;4.77;4.37;;;23.80;79.40;;;;;;4995477;28;20534;-87
2023/06/30 04:18:46;;;;;;;4.60;4.20;;;23.90;79.60;;;;;;4972967;28;20453;-88
2023/06/30 04:21:14;;;;;;;3.77;3.57;;;23.80;79.60;;;;;;4995292;28;20535;-82
2023/06/30 04:23:44;;;;;;;4.80;4.40;;;23.80;79.30;;;;;;4972121;28;20167;-82
2023/06/30 04:26:10;;;;;;;4.47;4.07;;;23.80;79.20;;;;;;4995190;28;20417;-82
2023/06/30 04:28:39;;;;;;;4.30;4.00;;;23.70;79.20;;;;;;4955278;28;20421;-81
2023/06/30 04:31:05;;;;;;;4.53;4.20;;;23.70;79.20;;;;;;4980060;28;20425;-82
2023/06/30 04:33:34;;;;;;;4.40;4.10;;;23.70;79.10;;;;;;4996983;28;20448;-83
2023/06/30 04:36:07;;;;;;;4.50;4.10;;;23.70;79.10;;;;;;4974243;28;20484;-82
2023/06/30 04:38:33;;;;;;;4.50;4.20;;;23.80;79.20;;;;;;4973581;28;20442;-82
2023/06/30 04:41:02;;;;;;;4.50;4.13;;;23.70;79.20;;;;;;4958911;28;20628;-82
2023/06/30 04:43:28;;;;;;;4.60;4.00;;;23.70;79.10;;;;;;4979997;28;20422;-82
2023/06/30 04:45:53;;;;;;;4.67;3.90;;;23.60;79.00;;;;;;4977119;28;20452;-82
2023/06/30 04:48:22;;;;;;;5.83;5.33;;;23.70;79.00;;;;;;4981779;28;20410;-82
2023/06/30 04:50:47;;;;;;;4.40;4.07;;;23.70;79.10;;;;;;4972516;28;20460;-81
2023/06/30 04:53:13;;;;;;;4.77;4.23;;;23.70;79.10;;;;;;4959203;28;20217;-82
2023/06/30 04:55:39;;;;;;;4.50;4.10;;;23.60;79.00;;;;;;4975339;28;20522;-82
2023/06/30 04:58:05;;;;;;;4.27;3.63;;;23.70;79.00;;;;;;4970970;28;20422;-82
2023/06/30 05:00:34;;;;;;;4.73;4.03;;;23.70;79.00;;;;;;4979392;28;20421;-82
2023/06/30 05:03:08;;;;;;;4.60;3.67;;;23.60;79.00;;;;;;4970288;28;20434;-82
2023/06/30 05:05:34;;;;;;;4.77;3.87;;;23.60;78.90;;;;;;4964609;28;20835;-82
2023/06/30 05:08:00;;;;;;;4.93;3.80;;;23.60;79.20;;;;;;4954972;29;20491;-83
2023/06/30 05:10:28;;;;;;;4.63;4.23;;;23.50;79.00;;;;;;4934143;29;20427;-82
2023/06/30 05:12:56;;;;;;;4.67;4.27;;;23.50;79.00;;;;;;4933952;29;20970;-83
2023/06/30 05:15:22;;;;;;;4.50;4.20;;;23.50;78.90;;;;;;4939580;29;20741;-83
2023/06/30 05:17:50;;;;;;;5.80;5.30;;;23.50;78.90;;;;;;4934282;29;20427;-83
2023/06/30 05:20:18;;;;;;;4.63;4.17;;;23.50;78.80;;;;;;4955815;29;20419;-82
2023/06/30 05:22:44;;;;;;;6.00;4.90;;;23.50;78.80;;;;;;4933260;29;20446;-83
2023/06/30 05:25:13;;;;;;;5.73;3.80;;;23.50;78.90;;;;;;4955706;29;20493;-83
2023/06/30 05:27:39;;;;;;;4.50;4.17;;;23.50;78.80;;;;;;4948105;29;20439;-83
2023/06/30 05:30:05;;;;;;;4.57;4.27;;;23.50;78.80;;;;;;4955646;29;20447;-83
2023/06/30 05:32:31;;;;;;;5.17;4.27;;;23.50;78.70;;;;;;4955729;29;20208;-83
2023/06/30 05:34:57;;;;;;;4.03;3.73;;;23.50;78.80;;;;;;4950288;29;20423;-83
2023/06/30 05:37:25;;;;;;;5.40;4.00;;;23.40;78.80;;;;;;4956298;28;20465;-86
2023/06/30 05:39:51;;;;;;;4.47;3.70;;;23.50;78.90;;;;;;4934288;29;20447;-86
2023/06/30 05:42:17;;;;;;;4.43;4.03;;;23.40;78.60;;;;;;4955572;28;20517;-86
2023/06/30 05:44:43;;;;;;;4.10;3.80;;;23.40;78.70;;;;;;4933163;29;20434;-85
2023/06/30 05:47:11;;;;;;;4.47;4.07;;;23.40;79.40;;;;;;4939822;29;20199;-86
2023/06/30 05:49:37;;;;;;;4.03;3.73;;;23.40;78.60;;;;;;4948103;29;20876;-86
2023/06/30 05:52:03;;;;;;;5.63;3.90;;;23.40;78.60;;;;;;4939434;29;20768;-85
2023/06/30 05:54:29;;;;;;;5.23;4.13;;;23.30;78.40;;;;;;4955605;29;20868;-86
2023/06/30 05:56:55;;;;;;;4.63;4.30;;;23.30;78.70;;;;;;4934235;29;20473;-85
2023/06/30 05:59:23;;;;;;;4.67;4.37;;;23.30;78.60;;;;;;4955691;29;20204;-86
2023/06/30 06:01:49;;;;;;;5.37;4.20;;;23.40;78.80;;;;;;4956368;29;20480;-85
2023/06/30 06:04:15;;;;;;;4.90;4.50;;;23.30;78.60;;;;;;4936818;29;20759;-86
2023/06/30 06:06:41;;;;;;;4.30;3.90;;;23.30;79.30;;;;;;4964314;28;20422;-85
2023/06/30 06:09:11;;;;;;;4.20;3.80;;;23.40;78.70;;;;;;4958332;29;20423;-84
2023/06/30 06:11:38;;;;;;;3.90;3.60;;;23.40;78.90;;;;;;4959634;28;20482;-85
2023/06/30 06:14:06;;;;;;;4.10;3.73;;;23.30;78.90;;;;;;4938813;29;20434;-85
2023/06/30 06:16:32;;;;;;;5.17;4.13;;;23.30;78.90;;;;;;4958711;29;20533;-84
2023/06/30 06:19:00;;;;;;;4.20;3.80;;;23.30;78.90;;;;;;4954130;29;20419;-84
2023/06/30 06:21:27;;;;;;;4.00;3.70;;;23.20;78.90;;;;;;4959290;29;20427;-84
2023/06/30 06:23:56;;;;;;;3.93;3.73;;;23.20;79.00;;;;;;4964081;29;20751;-84
2023/06/30 06:26:22;;;;;;;4.10;3.83;;;23.20;79.00;;;;;;4927429;29;20435;-85
2023/06/30 06:28:51;;;;;;;4.90;3.80;;;23.30;79.10;;;;;;4936671;29;20446;-83
2023/06/30 06:31:19;;;;;;;4.33;4.03;;;23.30;79.10;;;;;;4942516;29;20625;-84
2023/06/30 06:33:48;;;;;;;4.67;4.03;;;23.30;79.10;;;;;;4936821;29;20448;-85
2023/06/30 06:36:13;;;;;;;6.63;4.20;;;23.20;79.20;;;;;;4973735;28;20430;-83
2023/06/30 06:38:42;;;;;;;4.57;4.17;;;23.20;79.20;;;;;;4970602;28;20197;-83
2023/06/30 06:41:07;;;;;;;3.80;3.50;;;23.20;79.20;;;;;;4978613;28;20417;-84
2023/06/30 06:43:38;;;;;;;3.70;3.40;;;23.20;79.20;;;;;;4970339;28;20264;-83
2023/06/30 06:46:06;;;;;;;3.90;3.17;;;23.10;79.00;;;;;;4977793;28;20852;-83
2023/06/30 06:48:35;;;;;;;4.37;4.00;;;23.10;79.00;;;;;;4953355;28;20847;-83
2023/06/30 06:51:03;;;;;;;4.63;3.47;;;23.10;78.80;;;;;;4960762;28;20446;-83
2023/06/30 06:53:32;;;;;;;4.07;3.60;;;23.20;78.80;;;;;;4961038;28;20433;-82
2023/06/30 06:56:04;;;;;;;4.50;4.20;;;23.20;78.80;;;;;;4956668;28;20425;-83
2023/06/30 06:58:32;;;;;;;5.20;4.90;;;23.10;78.60;;;;;;4976837;28;20430;-83
2023/06/30 07:01:00;;;;;;;4.00;3.70;;;23.10;78.50;;;;;;4972342;28;20422;-84
2023/06/30 07:03:26;;;;;;;4.30;4.00;;;23.20;78.60;;;;;;4976954;28;20537;-83
2023/06/30 07:05:55;;;;;;;5.00;4.70;;;23.20;78.80;;;;;;4971283;28;20509;-84
2023/06/30 07:08:23;;;;;;;3.50;3.30;;;23.20;78.60;;;;;;4945315;28;20450;-84
2023/06/30 07:10:56;;;;;;;4.13;3.73;;;23.20;78.50;;;;;;4971521;28;20449;-83
2023/06/30 07:13:24;;;;;;;4.57;4.27;;;23.20;78.50;;;;;;4976817;28;20462;-84
2023/06/30 07:15:50;;;;;;;3.80;3.40;;;23.20;78.50;;;;;;4977693;28;20411;-84
2023/06/30 07:18:21;;;;;;;4.43;3.70;;;23.20;78.40;;;;;;4959630;28;20421;-84
2023/06/30 07:20:49;;;;;;;4.73;4.37;;;23.20;78.30;;;;;;4976721;28;20573;-84
2023/06/30 07:23:15;;;;;;;5.50;4.00;;;23.10;78.20;;;;;;4977670;28;20449;-83
2023/06/30 07:25:46;;;;;;;4.47;3.83;;;23.20;78.10;;;;;;4977580;28;20533;-85
2023/06/30 07:28:12;;;;;;;4.30;3.93;;;23.20;78.30;;;;;;4957484;28;20786;-83
2023/06/30 07:30:40;;;;;;;4.10;3.70;;;23.10;77.90;;;;;;4977439;28;20473;-84
2023/06/30 07:33:10;;;;;;;5.97;4.17;;;23.20;77.90;;;;;;4972442;28;21038;-85
2023/06/30 07:35:38;;;;;;;4.27;4.00;;;23.20;78.00;;;;;;4976685;28;20425;-84
2023/06/30 07:38:04;;;;;;;4.13;3.37;;;23.20;77.90;;;;;;4976573;28;20441;-85
2023/06/30 07:40:30;;;;;;;4.10;3.87;;;23.10;77.80;;;;;;4944312;28;20493;-85
2023/06/30 07:42:56;;;;;;;4.73;3.30;;;23.20;77.70;;;;;;4955060;28;20488;-84
2023/06/30 07:45:22;;;;;;;5.50;3.87;;;23.20;77.60;;;;;;4976346;28;20257;-84
2023/06/30 07:47:48;;;;;;;3.80;3.50;;;23.10;77.40;;;;;;4938425;28;20187;-84
2023/06/30 07:50:15;;;;;;;3.50;3.30;;;23.20;77.50;;;;;;4976249;28;20432;-84
2023/06/30 07:52:46;;;;;;;3.53;3.33;;;23.20;77.60;;;;;;4977140;28;20480;-86
2023/06/30 07:55:15;;;;;;;3.87;3.47;;;23.10;77.40;;;;;;4942037;28;20472;-85
2023/06/30 07:57:42;;;;;;;6.10;4.67;;;23.10;77.40;;;;;;4953923;28;20515;-85
2023/06/30 08:00:15;;;;;;;4.00;3.80;;;23.20;77.60;;;;;;4976250;28;20784;-85
2023/06/30 08:02:46;;;;;;;3.90;3.60;;;23.10;77.30;;;;;;4975908;28;20424;-84
2023/06/30 08:05:12;;;;;;;4.00;3.60;;;23.20;77.60;;;;;;4960334;28;20422;-85
2023/06/30 08:07:41;;;;;;;4.13;3.77;;;23.20;77.70;;;;;;4968692;28;20457;-85
2023/06/30 08:10:09;;;;;;;4.30;3.90;;;23.20;78.40;;;;;;4959946;28;20425;-84
2023/06/30 08:12:38;;;;;;;5.17;4.40;;;23.20;78.30;;;;;;4976649;28;20225;-84
2023/06/30 08:15:04;;;;;;;4.10;3.90;;;23.10;78.80;;;;;;4976480;28;20767;-85
2023/06/30 08:17:30;;;;;;;5.20;3.10;;;23.20;78.80;;;;;;4975466;28;20774;-85
2023/06/30 08:19:58;;;;;;;3.67;3.37;;;23.20;78.80;;;;;;4971182;28;20807;-85
2023/06/30 08:22:24;;;;;;;5.27;3.07;;;23.20;78.90;;;;;;4975718;28;20497;-85
2023/06/30 08:24:50;;;;;;;4.33;3.93;;;23.30;78.80;;;;;;4969930;28;20186;-85
2023/06/30 08:27:16;;;;;;;4.27;3.87;;;23.20;78.60;;;;;;4961360;28;20449;-85
2023/06/30 08:29:45;;;;;;;6.60;3.50;;;23.30;78.70;;;;;;4964575;28;20505;-84
2023/06/30 08:32:11;;;;;;;4.00;3.80;;;23.20;78.40;;;;;;4967462;28;20457;-84
2023/06/30 08:34:39;;;;;;;7.20;4.37;;;23.20;78.40;;;;;;4969362;28;20449;-86
2023/06/30 08:37:05;;;;;;;3.67;3.37;;;23.30;78.10;;;;;;4959721;28;20454;-84
2023/06/30 08:39:31;;;;;;;3.77;3.47;;;23.30;78.00;;;;;;4959538;28;20426;-85
2023/06/30 08:42:00;;;;;;;3.40;3.10;;;23.30;78.00;;;;;;4971044;28;20442;-85
2023/06/30 08:44:31;;;;;;;4.53;4.23;;;23.30;78.40;;;;;;4975375;28;20473;-88
2023/06/30 08:47:00;;;;;;;3.57;3.27;;;23.40;78.00;;;;;;4954377;28;20774;-85
2023/06/30 08:49:29;;;;;;;3.83;3.60;;;23.40;77.50;;;;;;4975791;28;20505;-85
2023/06/30 08:52:02;;;;;;;4.30;3.90;;;23.40;77.70;;;;;;4970445;28;20471;-85
2023/06/30 08:54:30;;;;;;;3.57;3.37;;;23.30;77.50;;;;;;4943787;28;20426;-85
2023/06/30 08:56:57;;;;;;;3.70;3.40;;;23.30;77.40;;;;;;4970027;28;20440;-85
2023/06/30 08:59:25;;;;;;;4.00;3.50;;;23.40;77.50;;;;;;4959381;28;20465;-85
2023/06/30 09:01:56;;;;;;;4.83;3.30;;;23.40;77.40;;;;;;4954275;28;20418;-86
2023/06/30 09:04:23;;;;;;;3.50;3.23;;;23.40;77.30;;;;;;4964609;28;20546;-85
2023/06/30 09:06:50;;;;;;;3.30;3.10;;;23.40;77.20;;;;;;4966337;28;20476;-82
2023/06/30 09:09:29;;;;;;;3.80;3.37;;;23.50;77.10;;;;;;4956458;29;20541;-81
2023/06/30 09:11:57;;;;;;;4.00;3.70;;;23.40;76.70;;;;;;4950103;29;20471;-81
2023/06/30 09:14:33;;;;;;;4.00;3.30;;;23.40;76.60;;;;;;4955618;29;20448;-82
2023/06/30 09:17:02;;;;;;;4.97;3.60;;;23.50;76.70;;;;;;4950651;29;20424;-81
2023/06/30 09:19:35;;;;;;;3.53;3.33;;;23.40;76.40;;;;;;4971123;28;20446;-81
2023/06/30 09:22:03;;;;;;;3.50;3.20;;;23.50;76.30;;;;;;4935315;29;20736;-81
2023/06/30 09:24:31;;;;;;;3.60;3.30;;;23.60;76.20;;;;;;4955301;29;20764;-81
2023/06/30 09:26:58;;;;;;;3.30;3.10;;;23.50;76.20;;;;;;4950255;29;20435;-82
2023/06/30 09:29:30;;;;;;;3.83;3.50;;;23.60;76.10;;;;;;4939590;29;20877;-82
2023/06/30 09:32:01;;;;;;;3.67;3.37;;;23.50;75.70;;;;;;4949830;29;20451;-81
2023/06/30 09:34:27;;;;;;;3.80;3.53;;;23.60;74.90;;;;;;4957093;28;20430;-81
2023/06/30 09:36:56;;;;;;;4.60;4.20;;;23.60;75.10;;;;;;4953073;28;20425;-81
2023/06/30 09:39:23;;;;;;;3.80;3.50;;;23.70;75.00;;;;;;4958448;28;20458;-82
2023/06/30 09:41:52;;;;;;;3.80;3.50;;;23.70;75.00;;;;;;4968561;28;20430;-81
2023/06/30 09:44:22;;;;;;;4.67;4.03;;;23.70;75.00;;;;;;4945496;28;20512;-81
2023/06/30 09:46:52;;;;;;;3.73;3.43;;;23.70;74.40;;;;;;4972010;28;20436;-82
2023/06/30 09:49:33;;;;;;;3.70;3.50;;;23.70;74.80;;;;;;4962289;28;20687;-81
2023/06/30 09:52:05;;;;;;;3.97;3.67;;;23.70;75.00;;;;;;4973275;28;20508;-81
2023/06/30 09:54:33;;;;;;;3.80;3.60;;;23.80;75.20;;;;;;4978084;28;20787;-81
2023/06/30 09:57:05;;;;;;;3.60;3.30;;;23.90;75.80;;;;;;4957929;28;20433;-81
2023/06/30 09:59:32;;;;;;;4.40;4.00;;;23.80;74.90;;;;;;4962179;28;20433;-82
2023/06/30 10:01:58;;;;;;;3.40;3.20;;;23.90;74.70;;;;;;4972823;28;20485;-81
2023/06/30 10:04:27;;;;;;;3.80;3.50;;;24.00;74.80;;;;;;4961873;28;20485;-82
2023/06/30 10:06:54;;;;;;;4.90;4.53;;;23.90;74.70;;;;;;4972431;28;20458;-81
2023/06/30 10:09:22;;;;;;;3.50;3.30;;;23.90;74.50;;;;;;4978547;28;20415;-82
2023/06/30 10:11:52;;;;;;;4.03;3.83;;;24.00;74.50;;;;;;4971353;28;20457;-81
2023/06/30 10:14:25;;;;;;;3.73;3.50;;;24.00;74.20;;;;;;4977494;28;20414;-81
2023/06/30 10:16:59;;;;;;;4.37;4.07;;;24.00;74.00;;;;;;4972340;28;20755;-81
2023/06/30 10:19:28;;;;;;;4.60;4.30;;;24.00;74.40;;;;;;4961271;28;20941;-82
2023/06/30 10:21:57;;;;;;;3.73;3.53;;;24.10;74.40;;;;;;4955937;28;20497;-81
2023/06/30 10:24:27;;;;;;;3.93;3.63;;;24.20;74.30;;;;;;4961859;28;20465;-82
2023/06/30 10:26:58;;;;;;;4.30;3.87;;;24.20;74.20;;;;;;4940892;28;20422;-81
2023/06/30 10:29:24;;;;;;;4.47;4.07;;;24.10;74.00;;;;;;4945349;28;20497;-81
2023/06/30 10:31:55;;;;;;;5.43;3.40;;;24.20;73.90;;;;;;4971657;28;20449;-81
2023/06/30 10:34:24;;;;;;;4.27;3.97;;;24.20;73.90;;;;;;4966393;28;20478;-81
2023/06/30 10:36:53;;;;;;;4.10;3.80;;;24.10;73.90;;;;;;4955035;28;20453;-82
2023/06/30 10:39:22;;;;;;;4.50;3.53;;;24.20;73.70;;;;;;4978328;28;20618;-81
2023/06/30 10:41:48;;;;;;;3.87;3.57;;;24.30;73.70;;;;;;4980180;28;20531;-82
2023/06/30 10:44:20;;;;;;;4.40;4.00;;;24.30;73.60;;;;;;4980433;28;20433;-81
2023/06/30 10:46:49;;;;;;;4.50;4.20;;;24.40;73.40;;;;;;4980654;28;20420;-82
2023/06/30 10:49:30;;;;;;;4.20;3.40;;;24.40;73.20;;;;;;4997652;28;20481;-81
2023/06/30 10:51:58;;;;;;;3.90;3.60;;;24.40;73.40;;;;;;4980478;28;20874;-81
2023/06/30 10:54:26;;;;;;;4.30;4.00;;;24.40;73.50;;;;;;4979798;28;20893;-83
2023/06/30 10:57:10;;;;;;;3.93;3.63;;;24.40;73.30;;;;;;4997125;28;20437;-81
2023/06/30 10:59:42;;;;;;;4.17;3.83;;;24.50;73.30;;;;;;4979780;28;20926;-81
2023/06/30 11:02:17;;;;;;;4.00;3.70;;;24.50;73.10;;;;;;4947892;28;20531;-81
2023/06/30 11:04:45;;;;;;;5.00;4.60;;;24.50;73.10;;;;;;4960725;28;20445;-81
2023/06/30 11:07:29;;;;;;;3.50;3.30;;;24.60;73.10;;;;;;4957504;28;20425;-81
2023/06/30 11:09:56;;;;;;;3.37;3.07;;;24.50;73.10;;;;;;4955485;28;20514;-81
2023/06/30 11:12:23;;;;;;;3.47;3.20;;;24.60;73.10;;;;;;4944747;28;20434;-82
2023/06/30 11:14:59;;;;;;;3.97;3.60;;;24.60;73.00;;;;;;4970907;28;20825;-82
2023/06/30 11:17:50;;;;;;;4.43;4.13;;;24.70;73.00;;;;;;4976647;28;20445;-83
2023/06/30 11:20:23;;;;;;;4.10;3.80;;;24.60;72.80;;;;;;4958553;28;20434;-81
2023/06/30 11:22:58;;;;;;;4.30;3.97;;;24.70;72.80;;;;;;4969960;28;20485;-82
2023/06/30 11:25:25;;;;;;;4.10;3.80;;;24.70;72.80;;;;;;4975820;28;20469;-81
2023/06/30 11:27:51;;;;;;;4.57;4.17;;;24.80;72.80;;;;;;4953958;28;20907;-82
2023/06/30 11:30:21;;;;;;;3.90;3.70;;;24.70;72.70;;;;;;4976795;28;20407;-82
2023/06/30 11:32:54;;;;;;;3.73;3.23;;;24.90;72.80;;;;;;4953558;28;20430;-83
2023/06/30 11:35:22;;;;;;;3.80;3.60;;;24.70;73.20;;;;;;4960003;28;20434;-82
2023/06/30 11:37:53;;;;;;;4.37;4.07;;;24.90;72.50;;;;;;4971128;28;20508;-81
2023/06/30 11:40:19;;;;;;;4.27;3.30;;;24.90;72.30;;;;;;4964986;28;20446;-80
2023/06/30 11:42:48;;;;;;;3.90;3.60;;;24.90;72.20;;;;;;4973376;28;20457;-81
2023/06/30 11:45:20;;;;;;;4.33;4.03;;;24.90;72.30;;;;;;4959862;28;20450;-81
2023/06/30 11:47:53;;;;;;;4.87;4.47;;;24.90;72.20;;;;;;4953850;28;20557;-81
2023/06/30 11:50:20;;;;;;;3.97;3.67;;;24.90;72.20;;;;;;4976958;28;20406;-81
2023/06/30 11:52:51;;;;;;;4.40;4.10;;;24.90;72.20;;;;;;4969715;28;20444;-81
2023/06/30 11:55:17;;;;;;;3.83;3.53;;;24.90;72.10;;;;;;4969578;28;20442;-82
2023/06/30 11:57:50;;;;;;;3.93;3.70;;;25.00;71.80;;;;;;4976740;28;20454;-82
2023/06/30 12:00:19;;;;;;;4.13;3.73;;;25.00;71.50;;;;;;4973251;28;20552;-82
2023/06/30 12:02:58;;;;;;;3.97;3.67;;;25.10;71.90;;;;;;4976511;28;20482;-81
2023/06/30 12:05:26;;;;;;;4.37;3.90;;;25.10;72.10;;;;;;4947519;28;20426;-82
2023/06/30 12:07:57;;;;;;;4.37;4.07;;;25.10;71.10;;;;;;4959241;28;20437;-81
2023/06/30 12:10:37;;;;;;;4.20;3.90;;;25.10;71.80;;;;;;4973022;28;20447;-82
2023/06/30 12:13:08;;;;;;;4.20;3.90;;;25.00;71.70;;;;;;4947931;29;20434;-82
2023/06/30 12:15:38;;;;;;;12.07;5.03;;;25.20;71.30;;;;;;4924662;29;20447;-81
2023/06/30 12:18:06;;;;;;;20.87;5.00;;;25.10;59.30;;;;;;4955766;28;20421;-81
2023/06/30 12:20:36;;;;;;;7.40;4.33;;;25.10;57.70;;;;;;4971857;28;20449;-80
2023/06/30 12:23:06;;;;;;;4.63;4.23;;;24.90;55.20;;;;;;4956225;28;20463;-81
2023/06/30 12:25:35;;;;;;;9.63;4.13;;;24.50;54.50;;;;;;4955506;29;20434;-81
2023/06/30 12:28:05;;;;;;;5.33;4.00;;;24.50;54.90;;;;;;4936151;29;21077;-80
2023/06/30 12:30:34;;;;;;;6.00;4.60;;;24.40;56.60;;;;;;4957632;28;20418;-80
2023/06/30 12:33:03;;;;;;;5.93;4.70;;;24.40;56.70;;;;;;4954633;28;20458;-80
2023/06/30 12:35:36;;;;;;;6.13;4.13;;;24.40;56.30;;;;;;4965030;28;20438;-80
2023/06/30 12:38:07;;;;;;;5.73;5.23;;;24.50;56.00;;;;;;4970531;28;20450;-80
2023/06/30 12:40:34;;;;;;;5.67;4.50;;;24.50;55.40;;;;;;4953467;29;20443;-79
2023/06/30 12:43:00;;;;;;;6.20;4.10;;;24.50;54.40;;;;;;4969263;28;20466;-84
2023/06/30 12:45:26;;;;;;;4.53;4.23;;;24.50;54.20;;;;;;4971831;28;20460;-80
2023/06/30 12:47:54;;;;;;;4.47;4.17;;;24.50;56.20;;;;;;4968451;28;20251;-80
2023/06/30 12:50:25;;;;;;;4.13;3.60;;;24.60;54.70;;;;;;4966818;28;20439;-80
2023/06/30 12:52:56;;;;;;;4.70;3.57;;;24.70;55.30;;;;;;4949083;29;20446;-81
2023/06/30 12:55:24;;;;;;;4.67;4.10;;;24.70;55.40;;;;;;4939537;29;20419;-80